sensor_id;sensor_type;location;lat;lon;timestamp;pressure;altitude;pressure_sealevel;temperature;humidity
7335;BME280;3708;42.632;23.378;2024-03-25T00:00:39;93053.97;;;2.44;86.10
7335;BME280;3708;42.632;23.378;2024-03-25T00:03:05;92990.88;;;1.63;85.13
7335;BME280;3708;42.632;23.378;2024-03-25T00:05:30;93031.19;;;2.01;85.97
7335;BME280;3708;42.632;23.378;2024-03-25T00:07:57;92971.75;;;1.65;85.59
7335;BME280;3708;42.632;23.378;2024-03-25T00:10:24;93073.84;;;2.36;84.54
7335;BME280;3708;42.632;23.378;2024-03-25T00:12:49;92963.69;;;1.48;85.59
7335;BME280;3708;42.632;23.378;2024-03-25T00:15:20;93075.16;;;2.27;85.54
7335;BME280;3708;42.632;23.378;2024-03-25T00:17:46;93041.81;;;2.01;85.92
7335;BME280;3708;42.632;23.378;2024-03-25T00:20:13;93008.31;;;1.74;86.40
7335;BME280;3708;42.632;23.378;2024-03-25T00:22:38;93027.19;;;1.93;86.46
7335;BME280;3708;42.632;23.378;2024-03-25T00:25:04;93067.06;;;2.17;86.53
7335;BME280;3708;42.632;23.378;2024-03-25T00:27:30;92987.81;;;1.67;86.23
7335;BME280;3708;42.632;23.378;2024-03-25T00:29:56;93019.16;;;2.00;85.30
7335;BME280;3708;42.632;23.378;2024-03-25T00:32:21;93031.09;;;2.16;85.43
7335;BME280;3708;42.632;23.378;2024-03-25T00:34:47;93035.50;;;2.22;85.46
7335;BME280;3708;42.632;23.378;2024-03-25T00:37:12;93033.00;;;2.24;85.86
7335;BME280;3708;42.632;23.378;2024-03-25T00:39:38;93061.78;;;2.42;85.80
7335;BME280;3708;42.632;23.378;2024-03-25T00:42:04;92978.69;;;1.92;85.00
7335;BME280;3708;42.632;23.378;2024-03-25T00:44:29;93024.13;;;2.29;85.21
7335;BME280;3708;42.632;23.378;2024-03-25T00:46:55;93001.72;;;2.14;86.11
7335;BME280;3708;42.632;23.378;2024-03-25T00:49:21;93032.16;;;2.46;85.15
7335;BME280;3708;42.632;23.378;2024-03-25T00:51:47;92971.69;;;2.04;85.28
7335;BME280;3708;42.632;23.378;2024-03-25T00:54:12;93003.53;;;2.37;85.32
7335;BME280;3708;42.632;23.378;2024-03-25T00:56:38;92978.81;;;2.27;83.83
7335;BME280;3708;42.632;23.378;2024-03-25T00:59:04;93002.00;;;2.51;84.24
7335;BME280;3708;42.632;23.378;2024-03-25T01:01:31;93045.66;;;2.89;83.82
7335;BME280;3708;42.632;23.378;2024-03-25T01:03:57;92974.13;;;2.35;84.30
7335;BME280;3708;42.632;23.378;2024-03-25T01:06:23;93010.22;;;2.45;83.73
7335;BME280;3708;42.632;23.378;2024-03-25T01:08:49;93050.53;;;2.76;83.76
7335;BME280;3708;42.632;23.378;2024-03-25T01:11:15;92974.41;;;2.22;84.33
7335;BME280;3708;42.632;23.378;2024-03-25T01:13:41;92997.25;;;2.49;84.40
7335;BME280;3708;42.632;23.378;2024-03-25T01:16:07;92991.38;;;2.51;83.29
7335;BME280;3708;42.632;23.378;2024-03-25T01:18:33;92946.44;;;2.21;84.15
7335;BME280;3708;42.632;23.378;2024-03-25T01:20:59;93026.00;;;2.85;84.26
7335;BME280;3708;42.632;23.378;2024-03-25T01:23:25;92941.94;;;2.31;84.74
7335;BME280;3708;42.632;23.378;2024-03-25T01:25:50;92963.50;;;2.59;83.88
7335;BME280;3708;42.632;23.378;2024-03-25T01:28:16;92979.16;;;2.72;82.98
7335;BME280;3708;42.632;23.378;2024-03-25T01:30:41;92990.75;;;2.84;82.67
7335;BME280;3708;42.632;23.378;2024-03-25T01:33:07;92945.44;;;2.58;82.00
7335;BME280;3708;42.632;23.378;2024-03-25T01:35:33;92956.00;;;2.65;81.81
7335;BME280;3708;42.632;23.378;2024-03-25T01:37:59;92906.81;;;2.40;82.80
7335;BME280;3708;42.632;23.378;2024-03-25T01:40:25;93028.09;;;3.28;82.52
7335;BME280;3708;42.632;23.378;2024-03-25T01:45:23;93014.19;;;3.20;82.69
7335;BME280;3708;42.632;23.378;2024-03-25T01:47:49;93027.47;;;3.37;82.65
7335;BME280;3708;42.632;23.378;2024-03-25T01:50:14;93020.50;;;3.42;81.73
7335;BME280;3708;42.632;23.378;2024-03-25T01:52:40;92994.75;;;3.27;82.38
7335;BME280;3708;42.632;23.378;2024-03-25T01:55:08;92941.25;;;2.89;82.91
7335;BME280;3708;42.632;23.378;2024-03-25T01:57:38;92929.28;;;2.80;83.07
7335;BME280;3708;42.632;23.378;2024-03-25T02:00:05;93020.28;;;3.47;83.33
7335;BME280;3708;42.632;23.378;2024-03-25T02:02:31;93006.72;;;3.19;83.02
7335;BME280;3708;42.632;23.378;2024-03-25T02:04:59;92979.34;;;2.92;84.10
7335;BME280;3708;42.632;23.378;2024-03-25T02:07:25;92980.88;;;2.77;83.71
7335;BME280;3708;42.632;23.378;2024-03-25T02:09:52;93047.56;;;3.14;84.04
7335;BME280;3708;42.632;23.378;2024-03-25T02:12:18;93013.94;;;2.67;84.03
7335;BME280;3708;42.632;23.378;2024-03-25T02:14:44;92989.97;;;2.50;85.32
7335;BME280;3708;42.632;23.378;2024-03-25T02:17:10;92989.00;;;2.38;86.40
7335;BME280;3708;42.632;23.378;2024-03-25T02:19:37;93049.53;;;2.71;86.25
7335;BME280;3708;42.632;23.378;2024-03-25T02:22:04;93033.69;;;2.56;86.01
7335;BME280;3708;42.632;23.378;2024-03-25T02:24:31;92996.09;;;2.10;86.53
7335;BME280;3708;42.632;23.378;2024-03-25T02:26:57;93029.56;;;2.38;85.70
7335;BME280;3708;42.632;23.378;2024-03-25T02:29:23;92991.16;;;2.07;86.13
7335;BME280;3708;42.632;23.378;2024-03-25T02:31:48;92920.13;;;1.58;84.59
7335;BME280;3708;42.632;23.378;2024-03-25T02:34:14;92961.19;;;1.82;85.22
7335;BME280;3708;42.632;23.378;2024-03-25T02:36:40;93026.31;;;2.23;84.86
7335;BME280;3708;42.632;23.378;2024-03-25T02:39:06;92963.91;;;1.74;85.53
7335;BME280;3708;42.632;23.378;2024-03-25T02:41:31;93064.63;;;2.37;85.81
7335;BME280;3708;42.632;23.378;2024-03-25T02:43:59;93043.53;;;2.39;85.99
7335;BME280;3708;42.632;23.378;2024-03-25T02:46:25;93048.50;;;2.42;86.24
7335;BME280;3708;42.632;23.378;2024-03-25T02:48:51;92999.63;;;2.13;85.98
7335;BME280;3708;42.632;23.378;2024-03-25T02:51:16;92990.97;;;2.05;86.39
7335;BME280;3708;42.632;23.378;2024-03-25T02:53:42;92951.88;;;1.73;85.67
7335;BME280;3708;42.632;23.378;2024-03-25T02:56:07;93063.28;;;2.53;86.77
7335;BME280;3708;42.632;23.378;2024-03-25T02:58:33;93063.59;;;2.57;86.27
7335;BME280;3708;42.632;23.378;2024-03-25T03:00:58;93023.38;;;2.36;86.43
7335;BME280;3708;42.632;23.378;2024-03-25T03:03:24;92955.28;;;1.98;84.91
7335;BME280;3708;42.632;23.378;2024-03-25T03:05:50;93081.59;;;2.73;83.61
7335;BME280;3708;42.632;23.378;2024-03-25T03:08:16;93003.63;;;2.22;82.54
7335;BME280;3708;42.632;23.378;2024-03-25T03:10:41;93000.50;;;2.15;83.84
7335;BME280;3708;42.632;23.378;2024-03-25T03:13:07;93038.06;;;2.37;80.41
7335;BME280;3708;42.632;23.378;2024-03-25T03:15:32;93022.72;;;2.28;81.40
7335;BME280;3708;42.632;23.378;2024-03-25T03:17:58;92978.13;;;1.94;81.01
7335;BME280;3708;42.632;23.378;2024-03-25T03:20:24;93062.66;;;2.45;80.15
7335;BME280;3708;42.632;23.378;2024-03-25T03:22:49;93016.75;;;2.20;79.19
7335;BME280;3708;42.632;23.378;2024-03-25T03:25:15;93052.59;;;2.36;79.05
7335;BME280;3708;42.632;23.378;2024-03-25T03:27:41;93091.19;;;2.69;80.08
7335;BME280;3708;42.632;23.378;2024-03-25T03:30:07;93096.13;;;2.72;79.16
7335;BME280;3708;42.632;23.378;2024-03-25T03:32:33;93073.56;;;2.56;78.41
7335;BME280;3708;42.632;23.378;2024-03-25T03:34:58;93029.78;;;2.33;78.66
7335;BME280;3708;42.632;23.378;2024-03-25T03:37:24;93052.66;;;2.53;79.04
7335;BME280;3708;42.632;23.378;2024-03-25T03:39:49;93059.31;;;2.61;77.29
7335;BME280;3708;42.632;23.378;2024-03-25T03:42:15;92985.91;;;2.24;77.96
7335;BME280;3708;42.632;23.378;2024-03-25T03:44:40;93009.19;;;2.41;76.56
7335;BME280;3708;42.632;23.378;2024-03-25T03:47:06;93107.50;;;3.15;77.80
7335;BME280;3708;42.632;23.378;2024-03-25T03:49:32;93101.56;;;3.24;74.88
7335;BME280;3708;42.632;23.378;2024-03-25T03:51:57;93038.13;;;2.78;75.48
7335;BME280;3708;42.632;23.378;2024-03-25T03:54:23;93077.22;;;3.10;73.84
7335;BME280;3708;42.632;23.378;2024-03-25T03:56:48;93044.22;;;2.88;73.05
7335;BME280;3708;42.632;23.378;2024-03-25T03:59:14;93087.81;;;3.35;72.84
7335;BME280;3708;42.632;23.378;2024-03-25T04:01:40;93109.03;;;3.42;74.01
7335;BME280;3708;42.632;23.378;2024-03-25T04:04:06;93050.56;;;2.93;73.99
7335;BME280;3708;42.632;23.378;2024-03-25T04:06:31;93085.50;;;3.14;73.33
7335;BME280;3708;42.632;23.378;2024-03-25T04:08:57;93131.97;;;3.38;73.61
7335;BME280;3708;42.632;23.378;2024-03-25T04:11:23;93143.16;;;3.36;74.25
7335;BME280;3708;42.632;23.378;2024-03-25T04:13:48;93065.69;;;2.91;74.10
7335;BME280;3708;42.632;23.378;2024-03-25T04:16:14;93066.28;;;2.81;73.58
7335;BME280;3708;42.632;23.378;2024-03-25T04:18:39;93102.13;;;2.98;74.39
7335;BME280;3708;42.632;23.378;2024-03-25T04:21:11;93148.72;;;3.31;74.02
7335;BME280;3708;42.632;23.378;2024-03-25T04:23:37;93041.66;;;2.56;73.13
7335;BME280;3708;42.632;23.378;2024-03-25T04:26:04;93115.69;;;3.09;72.15
7335;BME280;3708;42.632;23.378;2024-03-25T04:28:32;93140.13;;;3.15;71.90
7335;BME280;3708;42.632;23.378;2024-03-25T04:30:58;93057.06;;;2.58;73.13
7335;BME280;3708;42.632;23.378;2024-03-25T04:33:24;93043.81;;;2.50;73.28
7335;BME280;3708;42.632;23.378;2024-03-25T04:35:49;93123.25;;;2.96;72.42
7335;BME280;3708;42.632;23.378;2024-03-25T04:38:18;93163.09;;;3.03;73.70
7335;BME280;3708;42.632;23.378;2024-03-25T04:40:44;93133.41;;;2.89;72.85
7335;BME280;3708;42.632;23.378;2024-03-25T04:43:09;93118.16;;;2.65;72.83
7335;BME280;3708;42.632;23.378;2024-03-25T04:45:36;93058.06;;;2.13;72.94
7335;BME280;3708;42.632;23.378;2024-03-25T04:48:02;93137.97;;;2.72;72.27
7335;BME280;3708;42.632;23.378;2024-03-25T04:50:27;93111.50;;;2.49;72.32
7335;BME280;3708;42.632;23.378;2024-03-25T04:52:53;93151.25;;;2.72;72.39
7335;BME280;3708;42.632;23.378;2024-03-25T04:55:19;93189.53;;;3.01;72.61
7335;BME280;3708;42.632;23.378;2024-03-25T04:57:44;93163.63;;;2.77;71.93
7335;BME280;3708;42.632;23.378;2024-03-25T05:00:10;93178.94;;;2.94;72.47
7335;BME280;3708;42.632;23.378;2024-03-25T05:02:38;93117.94;;;2.39;71.98
7335;BME280;3708;42.632;23.378;2024-03-25T05:05:04;93213.75;;;3.13;72.63
7335;BME280;3708;42.632;23.378;2024-03-25T05:07:29;93188.84;;;2.93;71.78
7335;BME280;3708;42.632;23.378;2024-03-25T05:09:56;93191.16;;;2.97;71.49
7335;BME280;3708;42.632;23.378;2024-03-25T05:12:21;93205.06;;;2.80;72.39
7335;BME280;3708;42.632;23.378;2024-03-25T05:14:47;93164.50;;;2.47;72.89
7335;BME280;3708;42.632;23.378;2024-03-25T05:17:13;93199.88;;;2.89;73.26
7335;BME280;3708;42.632;23.378;2024-03-25T05:19:39;93163.78;;;2.47;73.08
7335;BME280;3708;42.632;23.378;2024-03-25T05:22:05;93132.97;;;2.44;73.09
7335;BME280;3708;42.632;23.378;2024-03-25T05:24:31;93168.81;;;2.67;72.79
7335;BME280;3708;42.632;23.378;2024-03-25T05:26:56;93214.72;;;3.00;73.65
7335;BME280;3708;42.632;23.378;2024-03-25T05:29:22;93229.91;;;3.07;72.96
7335;BME280;3708;42.632;23.378;2024-03-25T05:31:59;93190.13;;;2.60;72.97
7335;BME280;3708;42.632;23.378;2024-03-25T05:34:28;93241.25;;;3.08;72.32
7335;BME280;3708;42.632;23.378;2024-03-25T05:36:54;93231.69;;;3.05;73.57
7335;BME280;3708;42.632;23.378;2024-03-25T05:39:20;93134.66;;;2.24;72.27
7335;BME280;3708;42.632;23.378;2024-03-25T05:41:47;93163.78;;;2.47;72.35
7335;BME280;3708;42.632;23.378;2024-03-25T05:44:13;93211.81;;;2.81;72.61
7335;BME280;3708;42.632;23.378;2024-03-25T05:46:39;93075.69;;;1.86;72.65
7335;BME280;3708;42.632;23.378;2024-03-25T05:49:10;93187.59;;;2.69;73.16
7335;BME280;3708;42.632;23.378;2024-03-25T05:51:36;93210.53;;;2.89;71.40
7335;BME280;3708;42.632;23.378;2024-03-25T05:54:02;93258.22;;;3.20;72.27
7335;BME280;3708;42.632;23.378;2024-03-25T05:56:50;93069.53;;;1.76;71.57
7335;BME280;3708;42.632;23.378;2024-03-25T05:59:37;93222.31;;;2.71;70.76
7335;BME280;3708;42.632;23.378;2024-03-25T06:02:14;93272.44;;;3.15;70.88
7335;BME280;3708;42.632;23.378;2024-03-25T06:05:13;93291.06;;;3.15;70.54
7335;BME280;3708;42.632;23.378;2024-03-25T18:02:20;93592.28;;;4.95;48.63
7335;BME280;3708;42.632;23.378;2024-03-25T18:04:47;93671.50;;;5.59;47.37
7335;BME280;3708;42.632;23.378;2024-03-25T18:07:13;93609.91;;;5.15;47.89
7335;BME280;3708;42.632;23.378;2024-03-25T18:09:44;93659.00;;;5.44;48.05
7335;BME280;3708;42.632;23.378;2024-03-25T18:12:12;93745.59;;;6.08;47.34
7335;BME280;3708;42.632;23.378;2024-03-25T18:14:40;93692.97;;;5.68;46.77
7335;BME280;3708;42.632;23.378;2024-03-25T18:17:08;93752.53;;;6.11;47.65
7335;BME280;3708;42.632;23.378;2024-03-25T18:19:33;93678.72;;;5.49;47.39
7335;BME280;3708;42.632;23.378;2024-03-25T18:21:59;93760.22;;;6.07;47.61
7335;BME280;3708;42.632;23.378;2024-03-25T18:24:25;93702.28;;;5.67;47.83
7335;BME280;3708;42.632;23.378;2024-03-25T18:26:50;93645.00;;;5.12;47.92
7335;BME280;3708;42.632;23.378;2024-03-25T18:29:16;93700.47;;;5.45;48.09
7335;BME280;3708;42.632;23.378;2024-03-25T18:31:41;93706.00;;;5.47;48.67
7335;BME280;3708;42.632;23.378;2024-03-25T18:34:07;93723.22;;;5.54;47.97
7335;BME280;3708;42.632;23.378;2024-03-25T18:36:36;93665.47;;;5.09;48.50
7335;BME280;3708;42.632;23.378;2024-03-25T18:39:02;93680.88;;;5.18;47.67
7335;BME280;3708;42.632;23.378;2024-03-25T18:41:29;93719.88;;;5.46;48.21
7335;BME280;3708;42.632;23.378;2024-03-25T18:43:55;93662.50;;;4.97;48.68
7335;BME280;3708;42.632;23.378;2024-03-25T18:46:21;93690.88;;;5.18;48.74
7335;BME280;3708;42.632;23.378;2024-03-25T18:48:49;93691.34;;;5.24;47.51
7335;BME280;3708;42.632;23.378;2024-03-25T18:51:19;93659.00;;;4.95;48.51
7335;BME280;3708;42.632;23.378;2024-03-25T18:54:01;93657.88;;;4.98;48.67
7335;BME280;3708;42.632;23.378;2024-03-25T18:56:29;93550.59;;;4.18;49.15
7335;BME280;3708;42.632;23.378;2024-03-25T18:59:09;93638.09;;;4.76;48.82
7335;BME280;3708;42.632;23.378;2024-03-25T19:01:39;93532.03;;;3.95;48.70
7335;BME280;3708;42.632;23.378;2024-03-25T19:04:06;93675.53;;;4.93;48.98
7335;BME280;3708;42.632;23.378;2024-03-25T19:06:32;93666.53;;;4.81;49.08
7335;BME280;3708;42.632;23.378;2024-03-25T19:08:57;93776.78;;;5.56;48.25
7335;BME280;3708;42.632;23.378;2024-03-25T19:11:25;93725.03;;;5.19;48.67
7335;BME280;3708;42.632;23.378;2024-03-25T19:13:51;93609.66;;;4.39;47.53
7335;BME280;3708;42.632;23.378;2024-03-25T19:16:27;93662.44;;;4.80;47.25
7335;BME280;3708;42.632;23.378;2024-03-25T19:18:55;93633.06;;;4.56;47.61
7335;BME280;3708;42.632;23.378;2024-03-25T19:21:23;93808.69;;;5.78;47.61
7335;BME280;3708;42.632;23.378;2024-03-25T19:24:07;93672.56;;;4.82;47.65
7335;BME280;3708;42.632;23.378;2024-03-25T19:27:02;93798.06;;;5.71;47.55
7335;BME280;3708;42.632;23.378;2024-03-25T19:29:28;93632.00;;;4.51;47.40
7335;BME280;3708;42.632;23.378;2024-03-25T19:32:14;93754.09;;;5.40;48.71
7335;BME280;3708;42.632;23.378;2024-03-25T19:34:42;93757.41;;;5.48;46.96
7335;BME280;3708;42.632;23.378;2024-03-25T19:37:09;93806.56;;;5.77;47.54
7335;BME280;3708;42.632;23.378;2024-03-25T19:39:45;93616.38;;;4.48;47.65
7335;BME280;3708;42.632;23.378;2024-03-25T19:42:12;93778.88;;;5.65;47.85
7335;BME280;3708;42.632;23.378;2024-03-25T19:44:56;93747.13;;;5.44;46.55
7335;BME280;3708;42.632;23.378;2024-03-25T19:47:26;93668.69;;;4.75;46.39
7335;BME280;3708;42.632;23.378;2024-03-25T19:50:02;93772.19;;;5.49;47.31
7335;BME280;3708;42.632;23.378;2024-03-25T19:52:41;93586.00;;;4.11;47.61
7335;BME280;3708;42.632;23.378;2024-03-25T19:55:17;93668.53;;;4.66;47.80
7335;BME280;3708;42.632;23.378;2024-03-25T19:57:42;93748.31;;;5.26;47.49
7335;BME280;3708;42.632;23.378;2024-03-25T20:00:12;93751.34;;;5.23;46.62
7335;BME280;3708;42.632;23.378;2024-03-25T20:02:38;93747.59;;;5.26;47.22
7335;BME280;3708;42.632;23.378;2024-03-25T20:05:03;93763.50;;;5.41;46.98
7335;BME280;3708;42.632;23.378;2024-03-25T20:07:29;93773.13;;;5.44;47.27
7335;BME280;3708;42.632;23.378;2024-03-25T20:09:55;93781.28;;;5.46;46.68
7335;BME280;3708;42.632;23.378;2024-03-25T20:12:26;93752.75;;;5.24;47.38
7335;BME280;3708;42.632;23.378;2024-03-25T20:14:51;93725.44;;;5.08;49.27
7335;BME280;3708;42.632;23.378;2024-03-25T20:17:37;93718.22;;;4.93;50.78
7335;BME280;3708;42.632;23.378;2024-03-25T20:20:03;93849.66;;;5.81;51.10
7335;BME280;3708;42.632;23.378;2024-03-25T20:22:31;93856.97;;;5.41;53.60
7335;BME280;3708;42.632;23.378;2024-03-25T20:25:05;93862.13;;;5.46;53.26
7335;BME280;3708;42.632;23.378;2024-03-25T20:27:30;93789.59;;;4.78;54.06
7335;BME280;3708;42.632;23.378;2024-03-25T20:29:56;93801.34;;;4.82;54.63
7335;BME280;3708;42.632;23.378;2024-03-25T20:32:23;93842.22;;;4.92;55.21
7335;BME280;3708;42.632;23.378;2024-03-25T20:34:48;93813.88;;;4.50;56.29
7335;BME280;3708;42.632;23.378;2024-03-25T20:37:14;93838.38;;;4.56;55.43
7335;BME280;3708;42.632;23.378;2024-03-25T20:39:39;93798.63;;;4.20;56.35
7335;BME280;3708;42.632;23.378;2024-03-25T20:42:05;93828.63;;;4.43;55.86
7335;BME280;3708;42.632;23.378;2024-03-25T20:44:31;93802.16;;;4.30;55.25
7335;BME280;3708;42.632;23.378;2024-03-25T20:46:57;93874.13;;;4.60;56.33
7335;BME280;3708;42.632;23.378;2024-03-25T20:49:22;93789.03;;;3.87;56.32
7335;BME280;3708;42.632;23.378;2024-03-25T20:51:48;93865.44;;;4.45;55.57
7335;BME280;3708;42.632;23.378;2024-03-25T20:54:15;93853.50;;;4.23;54.78
7335;BME280;3708;42.632;23.378;2024-03-25T20:56:41;93872.53;;;4.42;53.32
7335;BME280;3708;42.632;23.378;2024-03-25T20:59:06;93864.00;;;4.36;53.14
7335;BME280;3708;42.632;23.378;2024-03-25T21:01:32;93877.31;;;4.51;52.04
7335;BME280;3708;42.632;23.378;2024-03-25T21:03:57;93876.97;;;4.55;51.22
7335;BME280;3708;42.632;23.378;2024-03-25T21:06:23;93849.63;;;4.31;51.62
7335;BME280;3708;42.632;23.378;2024-03-25T21:08:49;93901.84;;;4.72;52.11
7335;BME280;3708;42.632;23.378;2024-03-25T21:11:15;93821.34;;;4.21;50.27
7335;BME280;3708;42.632;23.378;2024-03-25T21:13:40;93899.69;;;4.71;52.23
7335;BME280;3708;42.632;23.378;2024-03-25T21:16:09;93835.22;;;4.04;53.30
7335;BME280;3708;42.632;23.378;2024-03-25T21:18:34;93872.16;;;4.23;54.55
7335;BME280;3708;42.632;23.378;2024-03-25T21:21:00;93894.03;;;4.37;54.02
7335;BME280;3708;42.632;23.378;2024-03-25T21:23:27;93888.72;;;4.29;54.30
7335;BME280;3708;42.632;23.378;2024-03-25T21:25:52;93904.50;;;4.12;54.80
7335;BME280;3708;42.632;23.378;2024-03-25T21:28:18;93877.47;;;3.85;55.89
7335;BME280;3708;42.632;23.378;2024-03-25T21:30:43;93900.94;;;4.09;55.07
7335;BME280;3708;42.632;23.378;2024-03-25T21:33:12;93855.59;;;3.72;56.57
7335;BME280;3708;42.632;23.378;2024-03-25T21:35:46;93905.38;;;3.99;56.55
7335;BME280;3708;42.632;23.378;2024-03-25T21:38:12;93861.06;;;3.51;55.18
7335;BME280;3708;42.632;23.378;2024-03-25T21:40:39;93866.38;;;3.51;54.54
7335;BME280;3708;42.632;23.378;2024-03-25T21:43:07;93852.66;;;3.32;55.13
7335;BME280;3708;42.632;23.378;2024-03-25T21:45:35;93860.13;;;3.33;56.01
7335;BME280;3708;42.632;23.378;2024-03-25T21:48:05;93913.19;;;3.90;57.42
7335;BME280;3708;42.632;23.378;2024-03-25T21:50:31;93887.44;;;3.92;55.98
7335;BME280;3708;42.632;23.378;2024-03-25T21:52:57;93914.09;;;4.15;54.36
7335;BME280;3708;42.632;23.378;2024-03-25T21:55:25;93807.63;;;3.34;53.67
7335;BME280;3708;42.632;23.378;2024-03-25T21:57:51;93843.69;;;3.57;54.70
7335;BME280;3708;42.632;23.378;2024-03-25T22:00:17;93841.66;;;3.28;54.25
7335;BME280;3708;42.632;23.378;2024-03-25T22:02:42;93736.94;;;2.52;56.11
7335;BME280;3708;42.632;23.378;2024-03-25T22:05:11;93924.59;;;3.54;56.55
7335;BME280;3708;42.632;23.378;2024-03-25T22:07:37;93849.22;;;3.16;55.48
7335;BME280;3708;42.632;23.378;2024-03-25T22:10:03;93912.94;;;3.73;55.73
7335;BME280;3708;42.632;23.378;2024-03-25T22:12:28;93935.03;;;3.96;55.59
7335;BME280;3708;42.632;23.378;2024-03-25T22:14:54;93907.63;;;3.73;56.69
7335;BME280;3708;42.632;23.378;2024-03-25T22:17:20;93872.19;;;3.34;56.06
7335;BME280;3708;42.632;23.378;2024-03-25T22:19:45;93887.31;;;3.47;58.74
7335;BME280;3708;42.632;23.378;2024-03-25T22:22:11;93864.94;;;3.42;57.11
7335;BME280;3708;42.632;23.378;2024-03-25T22:24:36;93878.72;;;3.26;57.45
7335;BME280;3708;42.632;23.378;2024-03-25T22:27:03;93853.22;;;2.95;57.51
7335;BME280;3708;42.632;23.378;2024-03-25T22:29:29;93926.88;;;3.43;58.14
7335;BME280;3708;42.632;23.378;2024-03-25T22:31:55;93894.28;;;3.14;58.72
7335;BME280;3708;42.632;23.378;2024-03-25T22:34:21;93875.41;;;2.97;58.91
7335;BME280;3708;42.632;23.378;2024-03-25T22:36:46;93866.97;;;2.78;59.44
7335;BME280;3708;42.632;23.378;2024-03-25T22:39:12;93828.41;;;2.56;58.55
7335;BME280;3708;42.632;23.378;2024-03-25T22:41:38;93906.88;;;3.14;58.61
7335;BME280;3708;42.632;23.378;2024-03-25T22:44:03;93860.50;;;2.66;59.18
7335;BME280;3708;42.632;23.378;2024-03-25T22:46:29;93848.13;;;2.68;60.28
7335;BME280;3708;42.632;23.378;2024-03-25T22:48:55;93716.00;;;1.84;58.99
7335;BME280;3708;42.632;23.378;2024-03-25T22:51:29;93808.66;;;2.44;58.42
7335;BME280;3708;42.632;23.378;2024-03-25T22:53:55;93869.69;;;2.85;58.46
7335;BME280;3708;42.632;23.378;2024-03-25T22:56:21;93723.81;;;1.62;57.70
7335;BME280;3708;42.632;23.378;2024-03-25T22:58:46;93835.59;;;2.20;59.15
7335;BME280;3708;42.632;23.378;2024-03-25T23:01:12;93882.25;;;2.57;59.41
7335;BME280;3708;42.632;23.378;2024-03-25T23:03:38;93781.81;;;1.78;59.95
7335;BME280;3708;42.632;23.378;2024-03-25T23:06:14;93821.41;;;2.17;60.24
7335;BME280;3708;42.632;23.378;2024-03-25T23:08:45;93844.72;;;2.32;59.19
7335;BME280;3708;42.632;23.378;2024-03-25T23:11:10;93774.41;;;1.84;59.22
7335;BME280;3708;42.632;23.378;2024-03-25T23:13:38;93845.25;;;2.31;60.46
7335;BME280;3708;42.632;23.378;2024-03-25T23:16:07;93898.31;;;2.72;60.86
7335;BME280;3708;42.632;23.378;2024-03-25T23:18:32;93852.59;;;2.45;61.89
7335;BME280;3708;42.632;23.378;2024-03-25T23:21:02;93909.38;;;2.83;61.59
7335;BME280;3708;42.632;23.378;2024-03-25T23:23:30;93875.91;;;2.32;61.56
7335;BME280;3708;42.632;23.378;2024-03-25T23:25:56;93899.53;;;2.43;61.09
7335;BME280;3708;42.632;23.378;2024-03-25T23:28:22;93946.50;;;2.48;61.28
7335;BME280;3708;42.632;23.378;2024-03-25T23:30:47;93864.22;;;1.73;61.82
7335;BME280;3708;42.632;23.378;2024-03-25T23:33:15;93858.16;;;1.85;61.48
7335;BME280;3708;42.632;23.378;2024-03-25T23:35:41;93884.34;;;2.02;61.87
7335;BME280;3708;42.632;23.378;2024-03-25T23:38:07;93877.78;;;1.82;61.92
7335;BME280;3708;42.632;23.378;2024-03-25T23:40:33;93924.31;;;2.38;61.31
7335;BME280;3708;42.632;23.378;2024-03-25T23:42:59;93900.75;;;2.42;61.61
7335;BME280;3708;42.632;23.378;2024-03-25T23:45:25;93899.38;;;2.48;61.32
7335;BME280;3708;42.632;23.378;2024-03-25T23:47:51;93938.81;;;2.85;59.79
7335;BME280;3708;42.632;23.378;2024-03-25T23:50:17;93882.41;;;2.51;61.16
7335;BME280;3708;42.632;23.378;2024-03-25T23:52:42;93957.41;;;3.06;59.59
7335;BME280;3708;42.632;23.378;2024-03-25T23:55:08;93904.28;;;2.65;61.00
7335;BME280;3708;42.632;23.378;2024-03-25T23:57:35;93832.56;;;1.95;59.14
